createdAt,value
2023-01-26T00:00:07.605Z,99905.80
2023-01-26T00:02:56.671Z,99901.77
2023-01-26T00:05:25.105Z,99902.27
2023-01-26T00:07:53.431Z,99894.23
2023-01-26T00:10:22.902Z,99890.75
2023-01-26T00:12:51.343Z,99890.09
2023-01-26T00:15:19.789Z,99890.08
2023-01-26T00:17:48.482Z,99889.00
2023-01-26T00:20:17.347Z,99883.77
2023-01-26T00:22:45.770Z,99880.81
2023-01-26T00:25:14.211Z,99877.52
2023-01-26T00:27:42.651Z,99876.98
2023-01-26T00:30:15.074Z,99877.16
2023-01-26T00:32:43.682Z,99874.87
2023-01-26T00:35:12.464Z,99872.73
2023-01-26T00:37:44.165Z,99870.12
2023-01-26T00:40:16.736Z,99866.75
2023-01-26T00:42:45.424Z,99865.85
2023-01-26T00:45:13.893Z,99862.00
2023-01-26T00:47:42.521Z,99859.90
2023-01-26T00:50:12.331Z,99856.76
2023-01-26T00:52:42.641Z,99853.23
2023-01-26T00:55:12.434Z,99853.56
2023-01-26T00:57:46.403Z,99851.63
2023-01-26T01:00:20.349Z,99844.96
2023-01-26T01:02:50.362Z,99842.15
2023-01-26T01:05:21.525Z,99842.65
2023-01-26T01:07:51.387Z,99842.80
2023-01-26T01:10:21.138Z,99841.56
2023-01-26T01:12:54.045Z,99839.77
2023-01-26T01:15:24.249Z,99835.23
2023-01-26T01:17:55.242Z,99829.85
2023-01-26T01:20:56.104Z,99826.73
2023-01-26T01:23:36.166Z,99828.33
2023-01-26T01:26:10.631Z,99828.11
2023-01-26T01:28:41.072Z,99827.39
2023-01-26T01:31:15.571Z,99825.23
2023-01-26T01:33:55.522Z,99820.84
2023-01-26T01:36:27.563Z,99820.44
2023-01-26T01:38:57.970Z,99817.98
2023-01-26T01:41:26.429Z,99813.44
2023-01-26T01:44:24.589Z,99806.45
2023-01-26T01:47:32.931Z,99807.52
2023-01-26T01:50:04.604Z,99804.37
2023-01-26T01:52:35.112Z,99804.87
2023-01-26T01:55:16.840Z,99802.43
2023-01-26T01:57:55.728Z,99798.23
2023-01-26T02:00:28.006Z,99797.19
2023-01-26T02:03:11.343Z,99798.76
2023-01-26T02:05:58.849Z,99793.70
2023-01-26T02:08:40.815Z,99795.44
2023-01-26T02:11:15.162Z,99794.36
2023-01-26T02:13:47.584Z,99790.52
2023-01-26T02:16:18.520Z,99787.90
2023-01-26T02:18:47.890Z,99782.87
2023-01-26T02:21:24.114Z,99780.55
2023-01-26T02:24:03.099Z,99777.97
2023-01-26T02:26:40.327Z,99767.17
2023-01-26T02:29:15.265Z,99769.33
2023-01-26T02:31:48.433Z,99769.18
2023-01-26T02:34:23.110Z,99772.61
2023-01-26T02:36:59.255Z,99768.95
2023-01-26T02:39:29.475Z,99771.91
2023-01-26T02:42:16.699Z,99772.23
2023-01-26T02:44:45.486Z,99770.98
2023-01-26T02:47:16.792Z,99771.17
2023-01-26T02:49:47.100Z,99765.41
2023-01-26T02:53:12.800Z,99762.09
2023-01-26T02:55:41.327Z,99761.04
2023-01-26T02:58:10.078Z,99759.58
2023-01-26T03:00:43.004Z,99756.95
2023-01-26T03:03:45.341Z,99756.41
2023-01-26T03:06:16.000Z,99758.45
2023-01-26T03:08:44.492Z,99754.23
2023-01-26T03:11:12.868Z,99753.84
2023-01-26T03:13:41.713Z,99757.69
2023-01-26T03:16:12.151Z,99757.58
2023-01-26T03:18:59.447Z,99751.90
2023-01-26T03:21:46.439Z,99752.86
2023-01-26T03:24:35.108Z,99751.89
2023-01-26T03:27:28.262Z,99756.14
2023-01-26T03:30:00.133Z,99755.64
2023-01-26T03:32:29.001Z,99752.66
2023-01-26T03:35:01.359Z,99748.81
2023-01-26T03:37:36.992Z,99747.91
2023-01-26T03:40:31.263Z,99752.26
2023-01-26T03:43:26.432Z,99755.00
2023-01-26T03:46:14.087Z,99748.34
2023-01-26T03:49:01.239Z,99738.00
2023-01-26T03:51:48.380Z,99736.41
2023-01-26T03:54:35.686Z,99732.73
2023-01-26T03:57:05.127Z,99727.52
2023-01-26T03:59:54.347Z,99716.90
2023-01-26T04:02:44.665Z,99712.96
2023-01-26T04:05:34.854Z,99716.18
2023-01-26T04:08:23.859Z,99708.20
2023-01-26T04:11:00.319Z,99700.99
2023-01-26T04:14:08.504Z,99704.14
2023-01-26T04:16:56.319Z,99702.93
2023-01-26T04:19:44.010Z,99704.30
2023-01-26T04:22:14.756Z,99702.73
2023-01-26T04:24:44.531Z,99708.28
2023-01-26T04:27:14.094Z,99707.40
2023-01-26T04:29:46.055Z,99706.02
2023-01-26T04:32:17.438Z,99708.67
2023-01-26T04:34:46.540Z,99703.27
2023-01-26T04:37:22.758Z,99701.04
2023-01-26T04:39:53.098Z,99702.08
2023-01-26T04:42:24.715Z,99700.11
2023-01-26T04:44:54.118Z,99696.05
2023-01-26T04:47:35.808Z,99690.09
2023-01-26T04:50:08.388Z,99683.31
2023-01-26T04:52:37.922Z,99678.92
2023-01-26T04:55:09.773Z,99679.27
2023-01-26T04:57:40.464Z,99677.02
2023-01-26T05:00:13.083Z,99675.11
2023-01-26T05:02:43.111Z,99669.27
2023-01-26T05:05:13.017Z,99672.75
2023-01-26T05:07:45.191Z,99672.92
2023-01-26T05:11:32.088Z,99673.96
2023-01-26T05:14:19.406Z,99679.77
2023-01-26T05:20:36.118Z,99677.27
2023-01-26T05:23:16.091Z,99681.13
2023-01-26T05:26:04.940Z,99681.17
2023-01-26T05:28:42.223Z,99679.11
2023-01-26T05:31:12.086Z,99684.22
2023-01-26T05:33:41.020Z,99679.25
2023-01-26T05:36:11.282Z,99682.44
2023-01-26T05:38:40.330Z,99681.42
2023-01-26T05:41:09.714Z,99683.35
2023-01-26T05:44:05.009Z,99682.30
2023-01-26T05:46:43.423Z,99675.29
2023-01-26T05:49:12.671Z,99675.49
2023-01-26T05:51:41.722Z,99674.31
2023-01-26T05:54:11.273Z,99674.54
2023-01-26T05:56:40.381Z,99677.69
2023-01-26T05:59:11.725Z,99677.52
2023-01-26T06:01:42.377Z,99678.19
2023-01-26T06:04:12.249Z,99675.34
2023-01-26T06:06:54.101Z,99668.71
2023-01-26T06:09:27.492Z,99670.43
2023-01-26T06:12:20.334Z,99668.50
2023-01-26T06:14:58.526Z,99671.80
2023-01-26T06:17:45.060Z,99674.60
2023-01-26T06:20:15.877Z,99676.54
2023-01-26T06:23:01.665Z,99676.20
2023-01-26T06:25:33.531Z,99676.75
2023-01-26T06:28:05.967Z,99678.73
2023-01-26T06:30:34.765Z,99679.85
2023-01-26T06:33:07.316Z,99678.80
2023-01-26T06:35:38.751Z,99677.42
2023-01-26T06:38:11.551Z,99676.23
2023-01-26T06:40:39.822Z,99675.88
2023-01-26T06:43:08.134Z,99675.52
2023-01-26T06:46:06.722Z,99672.56
2023-01-26T06:48:39.884Z,99675.19
2023-01-26T06:51:20.736Z,99678.48
2023-01-26T06:53:58.073Z,99676.19
2023-01-26T06:56:35.643Z,99676.98
2023-01-26T06:59:33.432Z,99674.96
2023-01-26T07:02:28.362Z,99673.47
2023-01-26T07:05:00.256Z,99669.59
2023-01-26T07:07:33.197Z,99672.86
2023-01-26T07:10:07.411Z,99667.74
2023-01-26T07:12:45.664Z,99669.59
2023-01-26T07:15:17.909Z,99668.98
2023-01-26T07:17:46.466Z,99668.05
2023-01-26T07:20:15.055Z,99660.89
2023-01-26T07:22:46.433Z,99660.36
2023-01-26T07:25:18.867Z,99662.41
2023-01-26T07:27:47.381Z,99660.25
2023-01-26T07:30:16.467Z,99657.54
2023-01-26T07:32:59.774Z,99651.53
2023-01-26T07:35:32.663Z,99653.05
2023-01-26T07:38:04.544Z,99656.23
2023-01-26T07:40:35.867Z,99654.77
2023-01-26T07:43:07.040Z,99650.66
2023-01-26T07:46:01.451Z,99655.11
2023-01-26T07:48:31.827Z,99651.41
2023-01-26T07:51:09.470Z,99654.35
2023-01-26T07:53:50.274Z,99655.36
2023-01-26T07:56:21.165Z,99654.54
2023-01-26T07:58:54.330Z,99654.89
2023-01-26T08:01:23.757Z,99656.40
2023-01-26T08:03:53.751Z,99660.19
2023-01-26T08:06:22.562Z,99661.19
2023-01-26T08:08:51.541Z,99659.22
2023-01-26T08:11:24.512Z,99660.80
2023-01-26T08:13:53.300Z,99662.15
2023-01-26T08:16:24.539Z,99664.34
2023-01-26T08:18:53.034Z,99659.56
2023-01-26T08:21:23.412Z,99654.34
2023-01-26T08:23:52.209Z,99653.29
2023-01-26T08:26:21.856Z,99651.41
2023-01-26T08:28:51.777Z,99652.20
2023-01-26T08:31:22.243Z,99652.77
2023-01-26T08:33:58.586Z,99652.83
2023-01-26T08:36:28.772Z,99648.73
2023-01-26T08:38:58.859Z,99641.67
2023-01-26T08:41:27.740Z,99637.76
2023-01-26T08:44:00.543Z,99643.89
2023-01-26T08:46:29.147Z,99646.70
2023-01-26T08:49:00.584Z,99644.19
2023-01-26T08:51:29.462Z,99642.17
2023-01-26T08:53:57.971Z,99637.38
2023-01-26T08:56:27.620Z,99639.45
2023-01-26T08:58:56.496Z,99638.52
2023-01-26T09:01:27.605Z,99636.54
2023-01-26T09:03:58.456Z,99633.91
2023-01-26T09:06:28.541Z,99637.29
2023-01-26T09:08:57.679Z,99639.71
2023-01-26T09:11:26.134Z,99640.91
2023-01-26T09:13:58.921Z,99644.50
2023-01-26T09:16:27.399Z,99640.34
2023-01-26T09:18:56.043Z,99636.86
2023-01-26T09:21:26.038Z,99632.72
2023-01-26T09:23:57.358Z,99632.95
2023-01-26T09:26:25.933Z,99634.45
2023-01-26T09:28:54.418Z,99634.71
2023-01-26T09:31:23.028Z,99633.41
2023-01-26T09:33:51.792Z,99634.77
2023-01-26T09:36:20.214Z,99632.45
2023-01-26T09:38:48.604Z,99631.29
2023-01-26T09:41:26.175Z,99626.15
2023-01-26T09:43:58.684Z,99622.23
2023-01-26T09:46:52.409Z,99620.91
2023-01-26T09:49:39.896Z,99620.46
2023-01-26T09:52:16.241Z,99617.75
2023-01-26T09:54:50.425Z,99612.19
2023-01-26T09:57:44.187Z,99606.90
2023-01-26T10:00:21.903Z,99604.53
2023-01-26T10:03:16.799Z,99599.86
2023-01-26T10:05:52.298Z,99597.29
2023-01-26T10:08:44.692Z,99598.60
2023-01-26T10:11:27.342Z,99597.30
2023-01-26T10:14:05.026Z,99589.03
2023-01-26T10:16:34.489Z,99583.88
2023-01-26T10:19:07.155Z,99581.45
2023-01-26T10:21:40.898Z,99581.13
2023-01-26T10:24:12.276Z,99578.19
2023-01-26T10:26:41.690Z,99574.95
2023-01-26T10:29:18.166Z,99576.71
2023-01-26T10:31:47.736Z,99576.62
2023-01-26T10:34:27.665Z,99582.62
2023-01-26T10:37:28.598Z,99582.33
2023-01-26T10:40:12.461Z,99575.80
2023-01-26T10:42:55.389Z,99566.02
2023-01-26T10:45:30.950Z,99565.27
2023-01-26T10:48:05.701Z,99560.52
2023-01-26T10:50:36.956Z,99557.73
2023-01-26T10:53:06.140Z,99558.23
2023-01-26T10:55:37.470Z,99555.39
2023-01-26T10:58:05.820Z,99555.38
2023-01-26T11:00:36.560Z,99553.95
2023-01-26T11:03:13.775Z,99549.09
2023-01-26T11:05:43.651Z,99543.13
2023-01-26T11:08:34.846Z,99535.90
2023-01-26T11:11:07.018Z,99536.88
2023-01-26T11:13:35.315Z,99531.48
2023-01-26T11:16:10.989Z,99529.67
2023-01-26T11:18:42.749Z,99527.05
2023-01-26T11:21:22.180Z,99526.64
2023-01-26T11:24:21.354Z,99526.72
2023-01-26T11:26:58.800Z,99528.09
2023-01-26T11:29:35.862Z,99529.14
2023-01-26T11:32:22.617Z,99526.73
2023-01-26T11:35:24.195Z,99530.95
2023-01-26T11:38:32.054Z,99528.38
2023-01-26T11:41:32.175Z,99531.45
2023-01-26T11:44:23.366Z,99529.16
2023-01-26T11:47:05.542Z,99524.52
2023-01-26T11:49:55.926Z,99519.61
2023-01-26T11:52:24.174Z,99514.05
2023-01-26T11:55:19.149Z,99509.02
2023-01-26T11:57:47.331Z,99503.38
2023-01-26T12:00:30.981Z,99501.01
2023-01-26T12:03:03.586Z,99492.30
2023-01-26T12:05:43.389Z,99486.30
2023-01-26T12:08:20.797Z,99483.83
2023-01-26T12:11:22.587Z,99483.06
2023-01-26T12:14:23.746Z,99476.99
2023-01-26T12:17:17.773Z,99473.83
2023-01-26T12:19:58.271Z,99473.02
2023-01-26T12:22:50.913Z,99470.85
2023-01-26T12:25:45.466Z,99468.61
2023-01-26T12:28:50.305Z,99463.80
2023-01-26T12:31:35.812Z,99454.94
2023-01-26T12:34:19.214Z,99451.58
2023-01-26T12:36:55.883Z,99452.02
2023-01-26T12:39:44.680Z,99452.17
2023-01-26T12:42:49.010Z,99454.04
2023-01-26T12:45:43.800Z,99453.71
2023-01-26T12:48:23.833Z,99450.62
2023-01-26T12:51:01.625Z,99452.54
2023-01-26T12:53:32.472Z,99453.88
2023-01-26T12:56:13.436Z,99454.70
2023-01-26T12:58:46.209Z,99453.67
2023-01-26T13:01:17.636Z,99450.73
2023-01-26T13:03:57.312Z,99443.73
2023-01-26T13:06:28.531Z,99444.46
2023-01-26T13:09:20.562Z,99446.02
2023-01-26T13:11:50.750Z,99444.55
2023-01-26T13:14:42.241Z,99443.00
2023-01-26T13:17:16.825Z,99443.02
2023-01-26T13:19:45.158Z,99440.91
2023-01-26T13:22:22.204Z,99447.38
2023-01-26T13:24:57.394Z,99445.15
2023-01-26T13:27:37.658Z,99442.56
2023-01-26T13:30:27.045Z,99441.77
2023-01-26T13:33:12.761Z,99440.59
2023-01-26T13:35:42.511Z,99443.45
2023-01-26T13:38:18.166Z,99446.20
2023-01-26T13:40:50.486Z,99445.38
2023-01-26T13:43:44.408Z,99447.24
2023-01-26T13:46:20.233Z,99446.96
2023-01-26T13:48:53.712Z,99449.64
2023-01-26T13:51:30.977Z,99448.85
2023-01-26T13:54:26.823Z,99450.67
2023-01-26T13:57:06.515Z,99451.12
2023-01-26T13:59:47.947Z,99450.35
2023-01-26T14:02:31.469Z,99451.46
2023-01-26T14:05:01.364Z,99452.54
2023-01-26T14:07:41.679Z,99448.66
2023-01-26T14:10:18.947Z,99444.78
2023-01-26T14:12:51.930Z,99441.45
2023-01-26T14:15:26.235Z,99443.05
2023-01-26T14:18:09.138Z,99446.11
2023-01-26T14:20:39.989Z,99446.18
2023-01-26T14:23:13.045Z,99445.04
2023-01-26T14:26:01.081Z,99446.52
2023-01-26T14:28:36.960Z,99443.11
2023-01-26T14:31:15.198Z,99443.02
2023-01-26T14:33:43.895Z,99446.26
2023-01-26T14:36:18.517Z,99443.96
2023-01-26T14:38:50.165Z,99449.55
2023-01-26T14:41:30.517Z,99451.22
2023-01-26T14:44:06.077Z,99453.02
2023-01-26T14:46:58.323Z,99452.39
2023-01-26T14:49:43.111Z,99448.45
2023-01-26T14:52:30.453Z,99446.40
2023-01-26T14:55:06.415Z,99443.66
2023-01-26T14:57:34.881Z,99443.58
2023-01-26T15:00:09.692Z,99445.14
2023-01-26T15:02:44.356Z,99439.00
2023-01-26T15:05:17.326Z,99433.73
2023-01-26T15:08:04.686Z,99432.17
2023-01-26T15:10:52.791Z,99431.95
2023-01-26T15:13:24.110Z,99427.91
2023-01-26T15:16:08.103Z,99430.83
2023-01-26T15:18:36.491Z,99434.73
2023-01-26T15:21:15.054Z,99434.98
2023-01-26T15:23:46.119Z,99433.95
2023-01-26T15:26:28.240Z,99434.19
2023-01-26T15:28:58.839Z,99436.69
2023-01-26T15:31:39.993Z,99441.16
2023-01-26T15:34:29.298Z,99440.59
2023-01-26T15:37:00.751Z,99441.08
2023-01-26T15:39:29.258Z,99439.27
2023-01-26T15:42:01.817Z,99439.23
2023-01-26T15:44:30.321Z,99438.14
2023-01-26T15:46:59.365Z,99442.95
2023-01-26T15:49:27.698Z,99439.20
2023-01-26T15:51:56.031Z,99438.23
2023-01-26T15:54:24.311Z,99435.02
2023-01-26T15:56:53.166Z,99438.41
2023-01-26T15:59:21.795Z,99434.44
2023-01-26T16:01:50.108Z,99435.34
2023-01-26T16:04:18.382Z,99432.26
2023-01-26T16:06:46.731Z,99434.04
2023-01-26T16:09:14.984Z,99431.60
2023-01-26T16:11:52.738Z,99434.91
2023-01-26T16:14:21.121Z,99431.95
2023-01-26T16:16:49.518Z,99427.95
2023-01-26T16:19:33.704Z,99427.05
2023-01-26T16:22:03.423Z,99428.29
2023-01-26T16:24:31.751Z,99428.13
2023-01-26T16:27:00.139Z,99426.23
2023-01-26T16:29:28.556Z,99427.85
2023-01-26T16:31:57.500Z,99424.37
2023-01-26T16:34:26.038Z,99425.42
2023-01-26T16:36:55.871Z,99425.95
2023-01-26T16:39:24.073Z,99422.98
2023-01-26T16:41:52.353Z,99421.75
2023-01-26T16:44:22.033Z,99422.41
2023-01-26T16:46:50.402Z,99418.70
2023-01-26T16:49:18.738Z,99417.30
2023-01-26T16:51:47.100Z,99417.30
2023-01-26T16:54:15.354Z,99414.00
2023-01-26T16:56:44.340Z,99411.21
2023-01-26T16:59:12.835Z,99404.09
2023-01-26T17:01:42.095Z,99401.63
2023-01-26T17:04:11.152Z,99399.17
2023-01-26T17:06:39.547Z,99402.52
2023-01-26T17:09:07.895Z,99398.36
2023-01-26T17:11:36.280Z,99399.22
2023-01-26T17:14:04.606Z,99394.67
2023-01-26T17:16:33.228Z,99393.98
2023-01-26T17:19:01.634Z,99391.35
2023-01-26T17:21:30.075Z,99392.37
2023-01-26T17:23:59.088Z,99395.69
2023-01-26T17:26:27.602Z,99397.79
2023-01-26T17:28:56.500Z,99397.98
2023-01-26T17:31:25.776Z,99393.67
2023-01-26T17:33:55.187Z,99393.67
2023-01-26T17:36:23.703Z,99394.72
2023-01-26T17:38:52.630Z,99394.92
2023-01-26T17:41:21.053Z,99395.30
2023-01-26T17:43:51.252Z,99397.61
2023-01-26T17:46:21.151Z,99399.92
2023-01-26T17:48:50.890Z,99398.89
2023-01-26T17:51:21.185Z,99392.45
2023-01-26T17:53:50.115Z,99396.81
2023-01-26T17:56:20.278Z,99397.89
2023-01-26T17:58:54.192Z,99402.24
2023-01-26T18:01:24.856Z,99404.52
2023-01-26T18:03:56.065Z,99401.40
2023-01-26T18:06:24.544Z,99397.05
2023-01-26T18:08:52.958Z,99397.07
2023-01-26T18:11:21.972Z,99397.61
2023-01-26T18:13:51.923Z,99396.95
2023-01-26T18:16:21.204Z,99401.69
2023-01-26T18:18:54.927Z,99400.98
2023-01-26T18:21:27.144Z,99398.56
2023-01-26T18:24:01.634Z,99402.57
2023-01-26T18:26:33.023Z,99403.26
2023-01-26T18:29:01.935Z,99405.48
2023-01-26T18:31:33.181Z,99405.83
2023-01-26T18:34:02.980Z,99408.08
2023-01-26T18:36:32.618Z,99406.14
2023-01-26T18:39:05.629Z,99406.96
2023-01-26T18:41:35.391Z,99404.16
2023-01-26T18:44:03.884Z,99407.96
2023-01-26T18:46:32.598Z,99411.41
2023-01-26T18:49:01.383Z,99413.30
2023-01-26T18:51:37.020Z,99415.41
2023-01-26T18:54:05.977Z,99418.88
2023-01-26T18:56:36.366Z,99418.34
2023-01-26T18:59:04.990Z,99420.27
2023-01-26T19:01:33.569Z,99418.52
2023-01-26T19:04:04.061Z,99418.84
2023-01-26T19:06:33.510Z,99414.65
2023-01-26T19:09:05.329Z,99415.35
2023-01-26T19:11:38.447Z,99412.39
2023-01-26T19:14:07.967Z,99415.59
2023-01-26T19:16:36.962Z,99417.02
2023-01-26T19:19:05.389Z,99412.34
2023-01-26T19:21:36.165Z,99409.20
2023-01-26T19:24:07.802Z,99408.20
2023-01-26T19:26:36.228Z,99404.88
2023-01-26T19:29:04.667Z,99405.94
2023-01-26T19:31:35.194Z,99404.21
2023-01-26T19:34:06.537Z,99402.11
2023-01-26T19:36:36.792Z,99399.46
2023-01-26T19:39:06.632Z,99399.09
2023-01-26T19:41:35.670Z,99398.90
2023-01-26T19:44:04.017Z,99395.05
2023-01-26T19:46:33.151Z,99396.44
2023-01-26T19:49:05.112Z,99394.19
2023-01-26T19:51:33.513Z,99393.30
2023-01-26T19:54:01.877Z,99387.51
2023-01-26T19:56:32.711Z,99386.27
2023-01-26T19:59:03.947Z,99378.80
2023-01-26T20:01:32.986Z,99376.73
2023-01-26T20:04:06.731Z,99381.10
2023-01-26T20:06:36.752Z,99381.29
2023-01-26T20:09:06.901Z,99381.33
2023-01-26T20:11:35.606Z,99381.36
2023-01-26T20:14:08.526Z,99379.16
2023-01-26T20:16:37.691Z,99382.86
2023-01-26T20:19:06.350Z,99379.80
2023-01-26T20:21:35.570Z,99378.61
2023-01-26T20:24:06.050Z,99375.85
2023-01-26T20:26:35.812Z,99375.35
2023-01-26T20:29:05.419Z,99376.41
2023-01-26T20:31:34.478Z,99378.85
2023-01-26T20:34:04.207Z,99379.38
2023-01-26T20:36:34.115Z,99376.42
2023-01-26T20:39:03.886Z,99378.39
2023-01-26T20:41:33.953Z,99376.49
2023-01-26T20:44:05.548Z,99374.60
2023-01-26T20:46:39.870Z,99379.88
2023-01-26T20:49:12.386Z,99376.94
2023-01-26T20:51:42.799Z,99377.10
2023-01-26T20:54:13.793Z,99375.70
2023-01-26T20:56:43.161Z,99378.13
2023-01-26T20:59:12.265Z,99378.26
2023-01-26T21:01:40.818Z,99372.30
2023-01-26T21:04:09.139Z,99372.81
2023-01-26T21:06:39.061Z,99372.48
2023-01-26T21:09:07.982Z,99370.22
2023-01-26T21:11:37.568Z,99368.68
2023-01-26T21:14:06.086Z,99367.14
2023-01-26T21:16:36.135Z,99368.56
2023-01-26T21:19:04.631Z,99366.45
2023-01-26T21:21:33.329Z,99362.45
2023-01-26T21:24:01.721Z,99368.19
2023-01-26T21:26:30.377Z,99364.88
2023-01-26T21:29:00.347Z,99362.25
2023-01-26T21:31:31.289Z,99361.87
2023-01-26T21:34:00.949Z,99359.59
2023-01-26T21:36:31.544Z,99361.88
2023-01-26T21:39:00.887Z,99361.35
2023-01-26T21:41:49.278Z,99361.84
2023-01-26T21:44:23.552Z,99357.31
2023-01-26T21:46:57.900Z,99357.14
2023-01-26T21:49:28.580Z,99353.16
2023-01-26T21:52:15.921Z,99352.32
2023-01-26T21:54:44.348Z,99351.44
2023-01-26T21:57:31.365Z,99345.14
2023-01-26T21:59:59.857Z,99348.43
2023-01-26T22:02:28.311Z,99342.84
2023-01-26T22:04:56.726Z,99340.38
2023-01-26T22:07:28.053Z,99338.61
2023-01-26T22:09:56.377Z,99342.77
2023-01-26T22:12:24.823Z,99339.66
2023-01-26T22:14:53.158Z,99340.36
2023-01-26T22:17:21.844Z,99338.11
2023-01-26T22:19:50.214Z,99338.30
2023-01-26T22:22:18.455Z,99334.12
2023-01-26T22:24:46.820Z,99331.15
2023-01-26T22:27:15.173Z,99331.19
2023-01-26T22:29:43.608Z,99330.18
2023-01-26T22:32:12.069Z,99332.14
2023-01-26T22:34:40.438Z,99331.79
2023-01-26T22:37:08.724Z,99335.21
2023-01-26T22:39:37.086Z,99328.36
2023-01-26T22:42:05.463Z,99326.91
2023-01-26T22:44:36.178Z,99320.96
2023-01-26T22:47:04.957Z,99319.38
2023-01-26T22:49:33.683Z,99319.51
2023-01-26T22:52:02.020Z,99321.38
2023-01-26T22:54:30.359Z,99322.77
2023-01-26T22:56:58.727Z,99322.02
2023-01-26T22:59:26.992Z,99318.88
2023-01-26T23:01:55.333Z,99319.08
2023-01-26T23:04:24.004Z,99316.67
2023-01-26T23:06:52.469Z,99315.60
2023-01-26T23:09:20.981Z,99312.64
2023-01-26T23:12:03.516Z,99315.42
2023-01-26T23:14:34.137Z,99313.29
2023-01-26T23:17:02.843Z,99313.48
2023-01-26T23:19:33.674Z,99311.03
2023-01-26T23:22:02.335Z,99312.27
2023-01-26T23:24:30.993Z,99314.05
2023-01-26T23:26:59.494Z,99315.83
2023-01-26T23:29:27.983Z,99320.54
2023-01-26T23:31:56.718Z,99321.05
2023-01-26T23:34:25.231Z,99317.38
2023-01-26T23:36:53.850Z,99320.13
2023-01-26T23:39:22.316Z,99322.77
2023-01-26T23:41:50.888Z,99323.45
2023-01-26T23:44:19.760Z,99319.77
2023-01-26T23:46:48.412Z,99314.54
2023-01-26T23:49:16.873Z,99313.30
2023-01-26T23:51:45.350Z,99316.14
2023-01-26T23:54:13.858Z,99316.49
2023-01-26T23:56:42.249Z,99320.73
2023-01-26T23:59:10.995Z,99316.77
